createdAt,value
2023-06-11T00:02:23.138Z,7.68
2023-06-11T00:04:55.931Z,8.27
2023-06-11T00:07:26.699Z,8.70
2023-06-11T00:09:56.793Z,8.77
2023-06-11T00:12:26.964Z,8.48
2023-06-11T00:14:56.922Z,8.27
2023-06-11T00:17:26.984Z,9.55
2023-06-11T00:19:59.782Z,8.82
2023-06-11T00:22:32.678Z,9.00
2023-06-11T00:25:02.688Z,8.57
2023-06-11T00:27:32.585Z,9.23
2023-06-11T00:30:04.757Z,8.52
2023-06-11T00:32:35.566Z,8.85
2023-06-11T00:35:11.065Z,9.02
2023-06-11T00:37:41.390Z,8.85
2023-06-11T00:40:12.765Z,8.73
2023-06-11T00:42:42.773Z,8.48
2023-06-11T00:45:13.809Z,9.05
2023-06-11T00:47:43.882Z,8.70
2023-06-11T00:50:16.991Z,8.82
2023-06-11T00:52:47.368Z,8.55
2023-06-11T00:55:17.735Z,8.93
2023-06-11T00:57:49.699Z,9.13
2023-06-11T01:00:21.764Z,8.85
2023-06-11T01:02:58.740Z,9.02
2023-06-11T01:05:44.572Z,9.45
2023-06-11T01:08:18.981Z,9.30
2023-06-11T01:10:50.713Z,9.40
2023-06-11T01:13:21.455Z,8.98
2023-06-11T01:15:52.058Z,9.35
2023-06-11T01:18:26.442Z,9.35
2023-06-11T01:21:03.144Z,9.23
2023-06-11T01:23:42.870Z,8.95
2023-06-11T01:26:25.377Z,9.18
2023-06-11T01:28:59.697Z,8.82
2023-06-11T01:31:32.714Z,8.98
2023-06-11T01:34:02.947Z,8.70
2023-06-11T01:36:35.889Z,8.77
2023-06-11T01:39:05.881Z,9.88
2023-06-11T01:41:35.961Z,8.88
2023-06-11T01:44:08.764Z,9.23
2023-06-11T01:46:38.720Z,8.90
2023-06-11T01:49:08.685Z,9.20
2023-06-11T01:51:39.000Z,8.38
2023-06-11T01:54:09.079Z,9.43
2023-06-11T01:56:38.932Z,9.32
2023-06-11T01:59:13.744Z,9.35
2023-06-11T02:01:43.733Z,8.95
2023-06-11T02:04:13.867Z,9.48
2023-06-11T02:06:43.890Z,9.52
2023-06-11T02:09:13.821Z,9.02
2023-06-11T02:11:43.680Z,9.65
2023-06-11T02:14:16.194Z,9.32
2023-06-11T02:16:46.133Z,9.65
2023-06-11T02:19:16.443Z,9.27
2023-06-11T02:21:47.485Z,9.15
2023-06-11T02:24:17.695Z,8.98
2023-06-11T02:26:47.650Z,9.10
2023-06-11T02:29:20.240Z,8.75
2023-06-11T02:31:50.276Z,8.93
2023-06-11T02:34:20.232Z,9.35
2023-06-11T02:36:50.200Z,9.10
2023-06-11T02:39:20.243Z,8.35
2023-06-11T02:41:50.147Z,8.77
2023-06-11T02:44:24.530Z,9.32
2023-06-11T02:46:54.602Z,9.43
2023-06-11T02:49:24.687Z,9.57
2023-06-11T02:51:54.591Z,9.10
2023-06-11T02:54:24.507Z,9.07
2023-06-11T02:56:54.411Z,9.05
2023-06-11T02:59:26.919Z,8.85
2023-06-11T03:01:57.816Z,9.50
2023-06-11T03:04:27.728Z,9.23
2023-06-11T03:06:57.664Z,9.13
2023-06-11T03:09:27.823Z,8.75
2023-06-11T03:11:57.775Z,9.65
2023-06-11T03:14:30.345Z,9.07
2023-06-11T03:17:00.234Z,9.13
2023-06-11T03:19:30.215Z,8.35
2023-06-11T03:22:00.063Z,9.38
2023-06-11T03:24:29.994Z,9.00
2023-06-11T03:26:59.910Z,9.10
2023-06-11T03:29:32.378Z,9.40
2023-06-11T03:32:02.285Z,8.77
2023-06-11T03:34:32.211Z,9.20
2023-06-11T03:37:02.157Z,8.63
2023-06-11T03:39:32.056Z,9.68
2023-06-11T03:42:02.078Z,9.23
2023-06-11T03:44:34.567Z,9.60
2023-06-11T03:47:04.494Z,9.55
2023-06-11T03:49:34.389Z,8.60
2023-06-11T03:52:04.407Z,8.55
2023-06-11T03:54:34.266Z,9.50
2023-06-11T03:57:04.189Z,9.10
2023-06-11T03:59:36.684Z,8.70
2023-06-11T04:02:08.667Z,8.93
2023-06-11T04:04:38.715Z,9.60
2023-06-11T04:07:09.317Z,8.57
2023-06-11T04:09:39.329Z,8.65
2023-06-11T04:12:11.257Z,8.98
2023-06-11T04:14:44.056Z,9.10
2023-06-11T04:17:17.296Z,9.10
2023-06-11T04:19:47.302Z,8.82
2023-06-11T04:22:17.204Z,8.88
2023-06-11T04:24:47.083Z,9.35
2023-06-11T04:27:16.950Z,9.15
2023-06-11T04:29:49.654Z,8.82
2023-06-11T04:32:22.549Z,9.38
2023-06-11T04:34:52.622Z,8.80
2023-06-11T04:37:22.994Z,8.88
2023-06-11T04:39:52.924Z,8.48
2023-06-11T04:42:25.944Z,9.23
2023-06-11T04:44:58.472Z,8.65
2023-06-11T04:47:30.342Z,9.32
2023-06-11T04:50:04.257Z,9.00
2023-06-11T04:52:36.360Z,9.30
2023-06-11T04:55:06.628Z,9.23
2023-06-11T04:57:37.822Z,8.90
2023-06-11T05:00:12.383Z,8.77
2023-06-11T05:02:45.994Z,9.23
2023-06-11T05:05:16.265Z,8.95
2023-06-11T05:07:46.529Z,8.85
2023-06-11T05:10:19.038Z,8.85
2023-06-11T05:12:49.099Z,8.77
2023-06-11T05:15:22.048Z,9.50
2023-06-11T05:17:53.652Z,8.40
2023-06-11T05:20:24.657Z,9.32
2023-06-11T05:22:56.227Z,9.77
2023-06-11T05:25:29.389Z,8.85
2023-06-11T05:28:03.113Z,8.95
2023-06-11T05:30:38.253Z,9.02
2023-06-11T05:33:08.550Z,8.77
2023-06-11T05:35:38.496Z,8.75
2023-06-11T05:38:09.497Z,8.68
2023-06-11T05:40:39.921Z,8.95
2023-06-11T05:43:13.066Z,8.73
2023-06-11T05:45:51.522Z,8.57
2023-06-11T05:48:21.738Z,8.90
2023-06-11T05:50:52.897Z,8.57
2023-06-11T05:53:22.854Z,8.40
2023-06-11T05:55:55.443Z,8.88
2023-06-11T05:58:26.193Z,8.32
2023-06-11T06:00:58.731Z,8.43
2023-06-11T06:03:28.706Z,8.50
2023-06-11T06:05:59.764Z,8.00
2023-06-11T06:08:30.263Z,9.10
2023-06-11T06:11:00.366Z,7.93
2023-06-11T06:13:30.974Z,8.13
2023-06-11T06:16:03.617Z,8.18
2023-06-11T06:18:37.630Z,7.93
2023-06-11T06:21:07.637Z,7.55
2023-06-11T06:23:37.828Z,7.95
2023-06-11T06:26:07.747Z,7.78
2023-06-11T06:28:37.930Z,7.50
2023-06-11T06:31:14.021Z,7.63
2023-06-11T06:33:44.017Z,7.25
2023-06-11T06:36:13.944Z,7.20
2023-06-11T06:38:46.072Z,6.88
2023-06-11T06:41:16.266Z,6.88
2023-06-11T06:43:46.337Z,7.00
2023-06-11T06:46:19.174Z,6.57
2023-06-11T06:48:49.551Z,7.13
2023-06-11T06:51:21.888Z,6.30
2023-06-11T06:53:52.226Z,6.30
2023-06-11T06:56:23.393Z,6.15
2023-06-11T06:58:53.314Z,6.55
2023-06-11T07:01:26.335Z,6.13
2023-06-11T07:03:56.408Z,6.85
2023-06-11T07:06:27.074Z,6.50
2023-06-11T07:08:57.018Z,6.18
2023-06-11T07:11:27.685Z,6.13
2023-06-11T07:13:57.919Z,6.40
2023-06-11T07:16:30.545Z,6.10
2023-06-11T07:19:00.531Z,5.72
2023-06-11T07:21:30.490Z,6.30
2023-06-11T07:24:05.900Z,6.10
2023-06-11T07:26:36.113Z,6.35
2023-06-11T07:29:06.797Z,6.05
2023-06-11T07:31:39.458Z,6.00
2023-06-11T07:34:09.428Z,6.40
2023-06-11T07:36:39.759Z,6.32
2023-06-11T07:39:09.728Z,5.82
2023-06-11T07:41:40.420Z,6.40
2023-06-11T07:44:10.358Z,5.97
2023-06-11T07:46:42.926Z,5.80
2023-06-11T07:49:12.862Z,5.93
2023-06-11T07:51:43.454Z,6.35
2023-06-11T07:54:13.389Z,5.68
2023-06-11T07:56:43.306Z,6.00
2023-06-11T07:59:13.199Z,5.70
2023-06-11T08:01:45.973Z,5.93
2023-06-11T08:04:15.881Z,6.10
2023-06-11T08:06:46.360Z,6.03
2023-06-11T08:09:16.309Z,6.25
2023-06-11T08:11:46.284Z,5.60
2023-06-11T08:14:20.049Z,5.97
2023-06-11T08:16:52.666Z,6.30
2023-06-11T08:19:22.631Z,6.15
2023-06-11T08:21:52.545Z,5.47
2023-06-11T08:24:22.983Z,6.10
2023-06-11T08:26:53.148Z,5.35
2023-06-11T08:29:23.207Z,5.97
2023-06-11T08:31:56.112Z,5.85
2023-06-11T08:34:26.103Z,5.68
2023-06-11T08:36:56.252Z,5.70
2023-06-11T08:39:26.375Z,6.47
2023-06-11T08:41:57.765Z,5.93
2023-06-11T08:44:28.310Z,5.68
2023-06-11T08:47:05.779Z,5.68
2023-06-11T08:49:38.662Z,5.13
2023-06-11T08:52:10.248Z,5.78
2023-06-11T08:54:40.187Z,5.60
2023-06-11T08:57:11.467Z,6.07
2023-06-11T08:59:43.408Z,5.55
2023-06-11T09:02:16.020Z,5.32
2023-06-11T09:04:46.995Z,5.60
2023-06-11T09:07:26.643Z,5.15
2023-06-11T09:10:06.993Z,5.10
2023-06-11T09:12:37.002Z,5.00
2023-06-11T09:15:09.311Z,5.13
2023-06-11T09:17:44.842Z,5.18
2023-06-11T09:20:16.868Z,5.22
2023-06-11T09:22:49.104Z,4.93
2023-06-11T09:25:20.666Z,5.20
2023-06-11T09:27:53.953Z,4.93
2023-06-11T09:30:24.356Z,5.40
2023-06-11T09:32:57.720Z,5.15
2023-06-11T09:35:27.703Z,5.10
2023-06-11T09:38:05.440Z,4.93
2023-06-11T09:40:38.327Z,4.78
2023-06-11T09:43:10.091Z,4.85
2023-06-11T09:45:41.364Z,5.05
2023-06-11T09:48:15.082Z,5.25
2023-06-11T09:50:46.315Z,4.88
2023-06-11T09:53:19.141Z,5.25
2023-06-11T09:56:05.462Z,5.78
2023-06-11T09:58:37.631Z,5.10
2023-06-11T10:01:08.963Z,5.10
2023-06-11T10:03:42.467Z,5.03
2023-06-11T10:06:20.449Z,5.07
2023-06-11T10:08:55.521Z,5.22
2023-06-11T10:11:27.304Z,5.18
2023-06-11T10:14:02.192Z,4.75
2023-06-11T10:16:35.290Z,4.78
2023-06-11T10:19:13.247Z,5.38
2023-06-11T10:21:45.743Z,4.95
2023-06-11T10:24:25.606Z,5.00
2023-06-11T10:27:09.949Z,4.95
2023-06-11T10:29:41.824Z,5.03
2023-06-11T10:32:19.435Z,4.95
2023-06-11T10:34:57.678Z,5.32
2023-06-11T10:37:34.096Z,5.63
2023-06-11T10:40:04.749Z,4.88
2023-06-11T10:42:40.359Z,5.20
2023-06-11T10:45:12.273Z,5.30
2023-06-11T10:47:46.850Z,5.50
2023-06-11T10:50:21.377Z,5.47
2023-06-11T10:52:55.111Z,5.22
2023-06-11T10:55:26.667Z,5.28
2023-06-11T10:57:57.140Z,5.47
2023-06-11T11:00:30.117Z,4.63
2023-06-11T11:03:01.204Z,5.55
2023-06-11T11:05:34.460Z,5.30
2023-06-11T11:08:04.596Z,5.25
2023-06-11T11:10:34.553Z,5.45
2023-06-11T11:13:05.256Z,4.95
2023-06-11T11:15:35.258Z,5.40
2023-06-11T11:18:06.562Z,5.18
2023-06-11T11:20:39.123Z,5.80
2023-06-11T11:23:10.265Z,5.55
2023-06-11T11:25:43.157Z,5.90
2023-06-11T11:28:15.291Z,5.53
2023-06-11T11:30:45.294Z,5.30
2023-06-11T11:33:15.577Z,5.45
2023-06-11T11:35:59.140Z,5.55
2023-06-11T11:38:30.127Z,6.05
2023-06-11T11:41:01.010Z,5.47
2023-06-11T11:43:39.760Z,5.40
2023-06-11T11:46:19.149Z,5.68
2023-06-11T11:48:49.541Z,6.15
2023-06-11T11:51:22.142Z,5.78
2023-06-11T11:53:55.592Z,5.93
2023-06-11T11:56:26.750Z,5.78
2023-06-11T11:58:57.880Z,5.20
2023-06-11T12:01:31.512Z,5.40
2023-06-11T12:04:06.087Z,5.25
2023-06-11T12:06:38.774Z,5.40
2023-06-11T12:09:08.750Z,5.38
2023-06-11T12:11:45.706Z,5.18
2023-06-11T12:14:22.105Z,5.60
2023-06-11T12:16:52.203Z,5.47
2023-06-11T12:19:24.391Z,5.40
2023-06-11T12:21:57.369Z,5.47
2023-06-11T12:24:27.834Z,5.50
2023-06-11T12:26:59.083Z,6.80
2023-06-11T12:29:29.273Z,6.07
2023-06-11T12:31:59.397Z,5.88
2023-06-11T12:34:29.367Z,6.07
2023-06-11T12:37:02.018Z,5.65
2023-06-11T12:39:31.972Z,5.18
2023-06-11T12:42:01.889Z,5.55
2023-06-11T12:44:32.567Z,6.07
2023-06-11T12:47:02.511Z,5.53
2023-06-11T12:49:32.868Z,5.85
2023-06-11T12:52:08.653Z,6.15
2023-06-11T12:54:38.694Z,5.90
2023-06-11T12:57:09.396Z,7.50
2023-06-11T12:59:39.532Z,5.93
2023-06-11T13:02:09.877Z,5.82
2023-06-11T13:04:39.933Z,5.97
2023-06-11T13:07:13.040Z,5.63
2023-06-11T13:09:43.054Z,5.90
2023-06-11T13:12:16.403Z,6.00
2023-06-11T13:14:46.546Z,5.60
2023-06-11T13:17:16.533Z,5.90
2023-06-11T13:19:46.534Z,5.65
2023-06-11T13:22:21.132Z,5.72
2023-06-11T13:24:51.085Z,6.25
2023-06-11T13:27:21.423Z,6.25
2023-06-11T13:29:51.416Z,5.68
2023-06-11T13:32:21.649Z,5.97
2023-06-11T13:34:51.723Z,6.18
2023-06-11T13:37:24.425Z,5.90
2023-06-11T13:39:54.501Z,5.60
2023-06-11T13:42:24.548Z,5.88
2023-06-11T13:44:54.580Z,6.00
2023-06-11T13:47:24.712Z,6.28
2023-06-11T13:49:54.799Z,6.22
2023-06-11T13:52:27.470Z,6.53
2023-06-11T13:54:57.690Z,5.78
2023-06-11T13:57:29.477Z,6.10
2023-06-11T14:00:00.979Z,6.30
2023-06-11T14:02:31.086Z,6.30
2023-06-11T14:05:01.034Z,6.35
2023-06-11T14:07:33.587Z,6.18
2023-06-11T14:10:06.525Z,6.15
2023-06-11T14:12:36.595Z,6.57
2023-06-11T14:15:07.071Z,6.35
2023-06-11T14:17:41.088Z,6.60
2023-06-11T14:20:14.818Z,6.50
2023-06-11T14:22:50.524Z,8.40
2023-06-11T14:25:20.762Z,6.72
2023-06-11T14:27:50.754Z,6.28
2023-06-11T14:30:20.767Z,6.72
2023-06-11T14:32:53.545Z,6.40
2023-06-11T14:35:24.665Z,6.03
2023-06-11T14:37:59.343Z,6.28
2023-06-11T14:40:36.392Z,6.60
2023-06-11T14:43:06.741Z,18.48
2023-06-11T14:45:38.765Z,17.83
2023-06-11T14:48:10.465Z,7.45
2023-06-11T14:50:40.485Z,7.78
2023-06-11T14:53:13.028Z,6.43
2023-06-11T14:55:43.058Z,6.25
2023-06-11T14:58:13.009Z,6.00
2023-06-11T15:00:45.991Z,5.93
2023-06-11T15:03:17.141Z,6.53
2023-06-11T15:05:48.273Z,6.38
2023-06-11T15:08:24.258Z,7.93
2023-06-11T15:10:54.204Z,6.80
2023-06-11T15:13:24.235Z,6.72
2023-06-11T15:15:54.679Z,7.03
2023-06-11T15:18:24.657Z,7.57
2023-06-11T15:20:55.311Z,8.75
2023-06-11T15:23:28.048Z,7.38
2023-06-11T15:25:57.996Z,6.60
2023-06-11T15:28:28.293Z,6.57
2023-06-11T15:30:58.297Z,6.55
2023-06-11T15:33:28.232Z,6.40
2023-06-11T15:35:58.121Z,6.22
2023-06-11T15:38:31.301Z,6.60
2023-06-11T15:41:01.356Z,6.25
2023-06-11T15:43:31.269Z,6.20
2023-06-11T15:46:01.181Z,6.43
2023-06-11T15:48:31.230Z,6.22
2023-06-11T15:51:01.805Z,6.22
2023-06-11T15:53:34.481Z,7.25
2023-06-11T15:56:08.369Z,7.50
2023-06-11T15:58:38.256Z,7.45
2023-06-11T16:01:08.318Z,6.80
2023-06-11T16:03:38.376Z,6.80
2023-06-11T16:06:15.713Z,8.70
2023-06-11T16:08:49.574Z,7.22
2023-06-11T16:11:19.575Z,7.60
2023-06-11T16:13:54.872Z,6.63
2023-06-11T16:16:24.994Z,6.32
2023-06-11T16:18:54.936Z,5.95
2023-06-11T16:21:24.904Z,6.28
2023-06-11T16:23:57.572Z,6.93
2023-06-11T16:26:28.796Z,6.97
2023-06-11T16:29:00.352Z,6.75
2023-06-11T16:31:31.485Z,6.65
2023-06-11T16:34:01.812Z,6.63
2023-06-11T16:36:32.022Z,7.25
2023-06-11T16:39:21.757Z,6.80
2023-06-11T16:41:56.753Z,6.63
2023-06-11T16:44:26.834Z,6.80
2023-06-11T16:46:56.801Z,6.95
2023-06-11T16:49:27.057Z,6.47
2023-06-11T16:51:57.844Z,6.88
2023-06-11T16:54:30.461Z,6.57
2023-06-11T16:57:00.625Z,6.20
2023-06-11T16:59:30.670Z,6.38
2023-06-11T17:02:00.969Z,6.28
2023-06-11T17:04:30.925Z,6.07
2023-06-11T17:07:00.925Z,6.50
2023-06-11T17:09:33.504Z,5.95
2023-06-11T17:12:03.711Z,6.30
2023-06-11T17:14:33.867Z,6.07
2023-06-11T17:17:04.380Z,5.75
2023-06-11T17:19:34.545Z,5.63
2023-06-11T17:22:04.586Z,5.68
2023-06-11T17:24:37.168Z,5.40
2023-06-11T17:27:07.661Z,5.97
2023-06-11T17:29:37.697Z,6.18
2023-06-11T17:32:08.712Z,5.80
2023-06-11T17:34:40.541Z,6.10
2023-06-11T17:37:10.986Z,6.03
2023-06-11T17:39:44.751Z,6.03
2023-06-11T17:42:14.748Z,5.47
2023-06-11T17:44:44.720Z,5.80
2023-06-11T17:47:14.749Z,5.70
2023-06-11T17:49:48.598Z,5.93
2023-06-11T17:52:19.946Z,5.80
2023-06-11T17:54:52.445Z,5.75
2023-06-11T17:57:22.515Z,5.25
2023-06-11T17:59:53.263Z,5.85
2023-06-11T18:02:23.395Z,5.93
2023-06-11T18:04:53.361Z,5.43
2023-06-11T18:07:23.399Z,5.47
2023-06-11T18:09:56.003Z,5.30
2023-06-11T18:12:25.874Z,5.68
2023-06-11T18:14:55.908Z,4.85
2023-06-11T18:17:25.907Z,5.68
2023-06-11T18:19:56.007Z,5.72
2023-06-11T18:22:28.038Z,5.43
2023-06-11T18:25:00.703Z,4.95
2023-06-11T18:27:30.850Z,10.38
2023-06-11T18:30:00.808Z,5.20
2023-06-11T18:32:30.919Z,5.95
2023-06-11T18:35:00.895Z,5.78
2023-06-11T18:37:31.006Z,5.40
2023-06-11T18:40:03.831Z,5.13
2023-06-11T18:42:33.831Z,5.38
2023-06-11T18:45:03.934Z,5.30
2023-06-11T18:47:33.917Z,5.50
2023-06-11T18:50:05.467Z,5.30
2023-06-11T18:52:35.440Z,5.20
2023-06-11T18:55:08.580Z,4.78
2023-06-11T18:57:38.757Z,5.15
2023-06-11T19:00:11.590Z,5.03
2023-06-11T19:02:41.997Z,5.03
2023-06-11T19:05:12.627Z,4.88
2023-06-11T19:07:42.982Z,5.20
2023-06-11T19:10:15.926Z,5.18
2023-06-11T19:12:46.206Z,5.28
2023-06-11T19:15:16.213Z,5.18
2023-06-11T19:17:46.298Z,5.38
2023-06-11T19:20:16.236Z,5.10
2023-06-11T19:22:46.225Z,6.00
2023-06-11T19:25:19.020Z,4.93
2023-06-11T19:27:48.967Z,4.95
2023-06-11T19:30:19.069Z,5.40
2023-06-11T19:32:49.090Z,4.60
2023-06-11T19:35:19.275Z,5.40
2023-06-11T19:37:49.783Z,5.35
2023-06-11T19:40:23.452Z,5.40
2023-06-11T19:42:53.421Z,5.10
2023-06-11T19:45:23.576Z,5.25
2023-06-11T19:47:53.575Z,4.80
2023-06-11T19:50:27.415Z,4.90
2023-06-11T19:52:59.302Z,5.18
2023-06-11T19:55:31.988Z,4.88
2023-06-11T19:58:03.670Z,5.30
2023-06-11T20:00:33.738Z,4.90
2023-06-11T20:03:03.696Z,5.35
2023-06-11T20:05:34.054Z,4.97
2023-06-11T20:08:04.726Z,5.18
2023-06-11T20:10:40.645Z,4.80
2023-06-11T20:13:10.768Z,4.88
2023-06-11T20:15:40.832Z,5.32
2023-06-11T20:18:10.986Z,5.18
2023-06-11T20:20:41.034Z,4.95
2023-06-11T20:23:11.483Z,5.47
2023-06-11T20:25:44.142Z,5.50
2023-06-11T20:28:14.250Z,4.88
2023-06-11T20:30:44.243Z,5.00
2023-06-11T20:33:14.365Z,4.93
2023-06-11T20:35:44.733Z,5.00
2023-06-11T20:38:14.782Z,5.28
2023-06-11T20:40:47.383Z,5.13
2023-06-11T20:43:17.307Z,5.20
2023-06-11T20:45:57.721Z,5.18
2023-06-11T20:48:28.444Z,5.35
2023-06-11T20:50:58.574Z,5.32
2023-06-11T20:53:33.898Z,5.22
2023-06-11T20:56:08.155Z,5.28
2023-06-11T20:58:38.693Z,4.93
2023-06-11T21:01:09.378Z,5.10
2023-06-11T21:03:39.443Z,5.15
2023-06-11T21:06:09.780Z,5.15
2023-06-11T21:08:39.723Z,5.20
2023-06-11T21:11:12.281Z,5.05
2023-06-11T21:13:42.262Z,4.95
2023-06-11T21:16:12.211Z,4.97
2023-06-11T21:18:42.272Z,5.05
2023-06-11T21:21:12.319Z,4.95
2023-06-11T21:23:42.345Z,4.85
2023-06-11T21:26:15.033Z,4.95
2023-06-11T21:28:44.941Z,5.43
2023-06-11T21:31:14.934Z,5.22
2023-06-11T21:33:45.008Z,5.05
2023-06-11T21:36:15.023Z,5.13
2023-06-11T21:38:45.019Z,5.40
2023-06-11T21:41:20.719Z,4.97
2023-06-11T21:43:50.720Z,4.72
2023-06-11T21:46:20.859Z,4.97
2023-06-11T21:48:51.037Z,4.90
2023-06-11T21:51:21.613Z,5.32
2023-06-11T21:53:51.945Z,5.30
2023-06-11T21:56:24.574Z,4.80
2023-06-11T21:58:54.528Z,4.78
2023-06-11T22:01:25.870Z,5.57
2023-06-11T22:03:56.036Z,5.05
2023-06-11T22:06:26.064Z,4.72
2023-06-11T22:08:57.739Z,5.45
2023-06-11T22:11:30.359Z,5.13
2023-06-11T22:14:02.225Z,4.88
2023-06-11T22:16:34.265Z,5.35
2023-06-11T22:19:05.326Z,5.18
2023-06-11T22:21:35.412Z,5.38
2023-06-11T22:24:05.384Z,5.20
2023-06-11T22:26:37.949Z,4.90
2023-06-11T22:29:07.934Z,5.30
2023-06-11T22:31:40.778Z,4.82
2023-06-11T22:34:11.169Z,5.18
2023-06-11T22:36:41.082Z,4.85
2023-06-11T22:39:11.837Z,5.32
2023-06-11T22:41:44.379Z,5.38
2023-06-11T22:44:14.454Z,5.13
2023-06-11T22:46:44.501Z,5.18
2023-06-11T22:49:15.290Z,5.35
2023-06-11T22:51:46.352Z,4.90
2023-06-11T22:54:16.246Z,4.85
2023-06-11T22:56:48.777Z,5.40
2023-06-11T22:59:18.965Z,5.43
2023-06-11T23:01:49.156Z,5.22
2023-06-11T23:04:21.020Z,5.60
2023-06-11T23:06:51.415Z,5.28
2023-06-11T23:09:23.617Z,5.28
2023-06-11T23:11:56.208Z,5.47
2023-06-11T23:14:26.257Z,5.40
2023-06-11T23:16:58.929Z,5.85
2023-06-11T23:19:30.670Z,5.10
2023-06-11T23:22:02.661Z,5.72
2023-06-11T23:24:32.647Z,5.40
2023-06-11T23:27:06.250Z,5.20
2023-06-11T23:29:36.432Z,5.40
2023-06-11T23:32:06.936Z,5.53
2023-06-11T23:34:37.420Z,5.22
2023-06-11T23:37:07.889Z,5.57
2023-06-11T23:39:38.024Z,6.05
2023-06-11T23:42:12.279Z,5.22
2023-06-11T23:44:42.430Z,5.47
2023-06-11T23:47:12.300Z,4.97
2023-06-11T23:49:42.245Z,5.28
2023-06-11T23:52:12.157Z,5.30
2023-06-11T23:54:42.074Z,5.30
2023-06-11T23:57:14.650Z,5.50
2023-06-11T23:59:44.683Z,6.10
